Flight Track Log - Related Links

Times and Time Zones

All times are in EDT time to prevent confusion due to time zone crossing. See the N15DF flight status page for this flight to view local times or setup timezone preferences in your user account.

Time Position Orientation Groundspeed Altitude Reporting Facility
EDT Latitude Longitude Course Direction KTS MPH feet Rate Location/Type
Tue 12:21:15 PM 18.3333 -64.9500 155° Southeast 110 127 1,300  Level San Center
Tue 12:22:16 PM 18.3000 -64.9333 155° Southeast 180 207 2,800 1,289 Climbing San Center
Tue 12:23:16 PM 18.2667 -65.0000 242° Southwest 220 253 3,900 1,450 Climbing San Center
Tue 12:24:16 PM 18.2667 -65.0500 270° West 230 265 5,700 1,686 Climbing San Center
Tue 12:25:17 PM 18.2667 -65.1333 270° West 240 276 7,300 1,488 Climbing San Center
Tue 12:26:17 PM 18.2833 -65.2000 285° West 250 288 8,700 1,350 Climbing San Center
Tue 12:27:17 PM 18.3000 -65.2833 282° West 260 299 10,000 1,240 Climbing San Center
Tue 12:28:18 PM 18.3167 -65.3500 285° West 270 311 11,200 1,240 Climbing San Center
Tue 12:29:18 PM 18.3333 -65.4333 282° West 250 288 12,500 1,250 Climbing San Center
Tue 12:30:18 PM 18.3500 -65.5000 285° West 260 299 13,700 1,240 Climbing San Center
Tue 12:31:19 PM 18.3500 -65.5833 270° West 260 299 15,000 1,240 Climbing San Center
Tue 12:32:19 PM 18.3667 -65.6500 285° West 260 299 16,200 1,250 Climbing San Center
Tue 12:33:19 PM 18.3833 -65.7333 282° West 250 288 17,500 1,300 Climbing San Center
Tue 12:34:19 PM 18.4000 -65.8000 285° West 250 288 18,800 1,190 Climbing San Center
Tue 12:35:20 PM 18.4167 -65.8667 285° West 240 276 19,900 992 Climbing San Center
Tue 12:36:20 PM 18.4333 -65.9500 282° West 270 311 20,800 900 Climbing San Center
Tue 12:37:20 PM 18.4333 -66.0000 270° West 250 288 21,700 893 Climbing San Center
Tue 12:38:21 PM 18.4500 -66.1000 280° West 270 311 22,600 843 Climbing San Center
Tue 12:39:21 PM 18.4500 -66.1667 270° West 270 311 23,400 850 Climbing San Center
Tue 12:40:21 PM 18.4500 -66.2500 270° West 270 311 24,300 893 Climbing San Center
Tue 12:41:22 PM 18.4500 -66.3333 270° West 270 311 25,200 893 Climbing San Center
Tue 12:42:22 PM 18.4667 -66.4167 282° West 270 311 26,100 900 Climbing San Center
Tue 12:43:22 PM 18.4667 -66.4833 270° West 260 299 27,000 793 Climbing San Center
Tue 12:44:23 PM 18.4667 -66.5667 270° West 270 311 27,700 694 Climbing San Center
Tue 12:45:23 PM 18.4667 -66.6500 270° West 270 311 28,400 700 Climbing San Center
Tue 12:46:23 PM 18.4667 -66.7167 270° West 260 299 29,100 700 Climbing San Center
Tue 12:47:23 PM 18.4833 -66.8000 282° West 260 299 29,800 694 Climbing San Center
Tue 12:48:24 PM 18.5000 -66.8667 285° West 250 288 30,500 545 Climbing San Center
Tue 12:49:24 PM 18.5333 -66.9500 293° West 270 311 30,900 500 Climbing San Center
Tue 12:50:24 PM 18.5500 -67.0167 285° West 270 311 31,500 545 Climbing San Center
Tue 12:51:25 PM 18.5667 -67.1000 282° West 270 311 32,000 496 Climbing San Center
Tue 12:52:25 PM 18.5833 -67.1667 285° West 270 311 32,500 550 Climbing San Center
Tue 12:53:25 PM 18.6167 -67.2500 293° West 270 311 33,100 600 Climbing San Center
Tue 12:54:25 PM 18.6333 -67.3167 285° West 270 311 33,700 545 Climbing San Center
Tue 12:55:26 PM 18.6500 -67.4000 282° West 270 311 34,200 496 Climbing San Center
Tue 12:56:26 PM 18.6833 -67.4667 298° West 260 299 34,700 500 Climbing San Center
Tue 12:57:26 PM 18.7000 -67.5500 282° West 260 299 35,200 645 Climbing San Center
Tue 12:58:27 PM 18.7167 -67.6167 285° West 260 299 36,000 397 Climbing San Center
Tue 12:59:27 PM 18.7333 -67.6833 285° West 260 299 36,000  Level San Center
Tue 01:00:28 PM 18.7667 -67.7667 293° West 260 299 36,000  Level San Center
Tue 01:01:28 PM 18.7833 -67.8500 282° West 270 311 36,000  Level San Center
Tue 01:02:28 PM 18.8000 -67.9167 285° West 280 322 36,000  Level San Center
Tue 01:03:29 PM 18.8333 -68.0000 293° West 290 334 36,000  Level San Center
Tue 01:04:29 PM 18.8500 -68.0833 282° West 300 345 36,000  Level San Center
Tue 01:05:29 PM 18.8833 -68.1667 293° West 290 334 36,000  Level San Center
Tue 01:06:29 PM 18.9167 -68.2500 293° West 300 345 36,000  Level San Center
Tue 01:27:29 PM 19.5781 -70.0506 285° West 368 423 36,000  Level Miami Center
Tue 01:28:00 PM 19.8368 -69.9324 285° West  Level FlightAware
Tue 01:28:29 PM 19.6128 -70.1347 294° West 340 391 36,000  Level Miami Center
Tue 01:29:00 PM 19.8600 -70.0249 285° West  Level FlightAware
Tue 01:29:29 PM 19.6394 -70.2233 288° West 320 368 36,000  Level Miami Center
Tue 01:30:00 PM 19.8831 -70.1174 285° West  Level FlightAware
Tue 01:30:29 PM 19.6683 -70.3122 289° West 320 368 36,000  Level Miami Center
Tue 01:31:00 PM 19.9062 -70.2100 285° West  Level FlightAware
Tue 01:31:29 PM 19.7008 -70.3986 292° West 320 368 36,000  Level Miami Center
Tue 01:32:29 PM 19.7317 -70.4853 291° West 320 368 36,000  Level Miami Center
Tue 01:33:29 PM 19.7600 -70.5719 289° West 320 368 36,000  Level Miami Center
Tue 01:34:29 PM 19.7967 -70.6561 295° West 320 368 36,000  Level Miami Center
Tue 01:35:29 PM 19.8272 -70.7428 291° West 320 368 36,000  Level Miami Center
Tue 01:36:29 PM 19.8617 -70.8272 293° West 320 368 36,000  Level Miami Center
Tue 01:37:29 PM 19.8942 -70.9161 291° West 314 361 36,000  Level Miami Center
Tue 01:38:29 PM 19.9267 -71.0006 292° West 314 361 36,000  Level Miami Center
Tue 01:39:29 PM 19.9611 -71.0894 292° West 319 367 36,000  Level Miami Center
Tue 01:40:30 PM 19.9933 -71.1742 292° West 319 367 36,000  Level Miami Center
Tue 01:41:29 PM 20.0256 -71.2586 292° West 319 367 36,000  Level Miami Center
Tue 01:42:29 PM 20.0600 -71.3478 292° West 319 367 36,000  Level Miami Center
Tue 01:43:29 PM 20.0944 -71.4325 293° West 324 373 36,000  Level Miami Center
Tue 01:44:29 PM 20.1286 -71.5194 293° West 324 373 36,000  Level Miami Center
Tue 01:45:29 PM 20.1608 -71.6064 292° West 319 367 36,000  Level Miami Center
Tue 01:46:29 PM 20.1950 -71.6956 292° West 324 373 36,000  Level Miami Center
Tue 01:47:30 PM 20.2311 -71.7781 295° West 324 373 36,000  Level Miami Center
Tue 01:48:29 PM 20.2653 -71.8675 292° West 324 373 36,000  Level Miami Center
Tue 01:49:29 PM 20.2944 -71.9372 294° West 324 373 36,000  Level Miami Center
Tue 01:50:29 PM 20.3286 -72.0311 291° West 324 373 36,000  Level Miami Center
Tue 01:51:29 PM 20.3647 -72.1203 293° West 324 373 36,000  Level Miami Center
Tue 01:52:29 PM 20.3967 -72.2078 291° West 324 373 36,000  Level Miami Center
Tue 01:53:29 PM 20.4408 -72.2925 299° West 324 373 36,000  Level Miami Center
Tue 01:54:29 PM 20.4889 -72.3683 304° West 324 373 36,000  Level Miami Center
Tue 01:55:29 PM 20.5372 -72.4486 303° West 324 373 36,000  Level Miami Center
Tue 01:56:29 PM 20.5853 -72.5292 303° West 324 373 36,000  Level Miami Center
Tue 01:57:29 PM 20.6417 -72.6028 309° West 319 367 36,000  Level Miami Center
Tue 01:58:29 PM 20.6978 -72.6742 310° West 319 367 36,000  Level Miami Center
Tue 01:59:29 PM 20.7539 -72.7478 309° West 324 373 36,000  Level Miami Center
Tue 02:00:29 PM 20.8103 -72.8217 309° West 319 367 36,000  Level Miami Center
Tue 02:01:29 PM 20.8664 -72.8975 308° West 319 367 36,000  Level Miami Center
Tue 02:02:29 PM 20.9244 -72.9692 311° West 319 367 36,000  Level Miami Center
Tue 02:03:29 PM 20.9828 -73.0431 310° West 324 373 36,000  Level Miami Center
Tue 02:04:29 PM 21.0367 -73.1169 308° West 319 367 36,000  Level Miami Center
Tue 02:05:29 PM 21.0947 -73.1911 310° West 319 367 36,000  Level Miami Center
Tue 02:06:29 PM 21.1508 -73.2631 310° West 319 367 36,000  Level Miami Center
Tue 02:07:29 PM 21.2025 -73.3372 307° West 319 367 36,000  Level Miami Center
Tue 02:08:29 PM 21.2606 -73.4114 310° West 319 367 36,000  Level Miami Center
Tue 02:09:29 PM 21.3186 -73.4856 310° West 319 367 36,000  Level Miami Center
Tue 02:10:29 PM 21.3722 -73.5556 309° West 319 367 36,000  Level Miami Center
Tue 02:11:29 PM 21.4283 -73.6322 308° West 319 367 36,000  Level Miami Center
Tue 02:12:29 PM 21.4839 -73.7044 310° West 318 366 36,000  Level Miami Center
Tue 02:13:29 PM 21.5378 -73.7769 309° West 318 366 36,000  Level Miami Center
Tue 02:14:29 PM 21.5933 -73.8517 309° West 318 366 36,000  Level Miami Center
Tue 02:15:29 PM 21.6469 -73.9264 308° West 323 372 36,000  Level Miami Center
Tue 02:16:29 PM 21.7050 -74.0008 310° West 317 365 36,000  Level Miami Center
Tue 02:17:29 PM 21.7583 -74.0758 307° West 322 371 36,000  Level Miami Center
Tue 02:18:29 PM 21.8142 -74.1575 306° West 322 371 36,000  Level Miami Center
Tue 02:19:29 PM 21.8719 -74.2300 311° West 322 371 36,000  Level Miami Center
Tue 02:20:29 PM 21.9294 -74.3028 310° West 322 371 36,000  Level Miami Center
Tue 02:21:29 PM 21.9872 -74.3800 309° West 322 371 36,000  Level Miami Center
Tue 02:22:29 PM 22.0406 -74.4550 308° West 322 371 36,000  Level Miami Center
Tue 02:23:29 PM 22.0939 -74.5303 307° West 322 371 36,000  Level Miami Center
Tue 02:24:29 PM 22.1494 -74.6056 309° West 322 371 36,000  Level Miami Center
Tue 02:25:29 PM 22.2069 -74.6786 310° West 322 371 36,000  Level Miami Center
Tue 02:26:29 PM 22.2603 -74.7564 307° West 322 371 36,000  Level Miami Center
Tue 02:27:29 PM 22.3156 -74.8294 309° West 322 371 36,000  Level Miami Center
Tue 02:28:29 PM 22.3728 -74.9050 309° West 322 371 36,000  Level Miami Center
Tue 02:29:29 PM 22.4281 -74.9806 308° West 322 371 36,000  Level Miami Center
Tue 02:30:29 PM 22.4833 -75.0561 308° West 322 371 36,000  Level Miami Center
Tue 02:31:29 PM 22.5386 -75.1319 308° West 322 371 36,000  Level Miami Center
Tue 02:32:29 PM 22.5936 -75.2075 308° West 322 371 36,000  Level Miami Center
Tue 02:33:29 PM 22.6508 -75.2833 309° West 322 371 36,000  Level Miami Center
Tue 02:34:29 PM 22.7039 -75.3592 307° West 322 371 36,000  Level Miami Center
Tue 02:35:29 PM 22.7589 -75.4331 309° West 322 371 36,000  Level Miami Center
Tue 02:36:29 PM 22.8161 -75.5111 309° West 322 371 36,000  Level Miami Center
Tue 02:37:29 PM 22.8711 -75.5872 308° West 322 371 36,000  Level Miami Center
Tue 02:38:29 PM 22.9261 -75.6633 308° West 322 371 36,000  Level Miami Center
Tue 02:39:29 PM 22.9808 -75.7397 308° West 322 371 36,000  Level Miami Center
Tue 02:40:29 PM 23.0294 -75.8069 308° West 322 371 36,000  Level Miami Center
Tue 02:41:29 PM 23.0844 -75.8856 307° West 322 371 36,000  Level Miami Center
Tue 02:42:29 PM 23.1392 -75.9619 308° West 322 371 36,000  Level Miami Center
Tue 02:43:29 PM 23.1939 -76.0406 307° West 322 371 36,000  Level Miami Center
Tue 02:44:29 PM 23.2508 -76.1172 309° West 322 371 36,000  Level Miami Center
Tue 02:45:29 PM 23.3056 -76.1939 308° West 322 371 36,000  Level Miami Center
Tue 02:46:29 PM 23.3600 -76.2706 308° West 322 371 36,000  Level Miami Center
Tue 02:47:29 PM 23.4169 -76.3472 309° West 322 371 36,000  Level Miami Center
Tue 02:48:29 PM 23.4736 -76.4217 310° West 322 371 36,000  Level Miami Center
Tue 02:49:29 PM 23.5258 -76.5008 306° West 322 371 36,000  Level Miami Center
Tue 02:50:29 PM 23.5825 -76.5778 309° West 322 371 36,000  Level Miami Center
Tue 02:51:29 PM 23.6369 -76.6547 308° West 322 371 36,000  Level Miami Center
Tue 02:52:29 PM 23.6914 -76.7319 308° West 322 371 36,000  Level Miami Center
Tue 02:53:29 PM 23.7500 -76.8181 307° West 322 371 36,000  Level Miami Center
Tue 02:54:29 PM 23.8064 -76.8953 309° West 322 371 36,000  Level Miami Center
Tue 02:55:29 PM 23.8628 -76.9725 309° West 322 371 36,000  Level Miami Center
Tue 02:56:29 PM 23.9172 -77.0497 308° West 322 371 36,000  Level Miami Center
Tue 02:57:29 PM 23.9733 -77.1272 308° West 322 371 36,000  Level Miami Center
Tue 02:58:29 PM 24.0256 -77.2069 306° West 322 371 36,000  Level Miami Center
Tue 02:59:29 PM 24.0817 -77.2844 308° West 327 376 36,000  Level Miami Center
Tue 03:00:29 PM 24.1358 -77.3597 308° West 322 371 36,000  Level Miami Center
Tue 03:01:29 PM 24.1772 -77.4489 297° West 322 371 36,000  Level Miami Center
Tue 03:02:29 PM 24.2019 -77.5219 290° West 317 365 36,000  Level Miami Center
Tue 03:03:29 PM 24.2372 -77.6178 292° West 317 365 36,000  Level Miami Center
Tue 03:04:29 PM 24.2681 -77.7092 290° West 317 365 36,000  Level Miami Center
Tue 03:05:29 PM 24.2989 -77.8006 290° West 317 365 36,000  Level Miami Center
Tue 03:06:29 PM 24.3275 -77.8919 289° West 317 365 36,000  Level Miami Center
Tue 03:07:29 PM 24.3581 -77.9811 291° West 317 365 36,000  Level Miami Center
Tue 03:08:29 PM 24.3889 -78.0750 290° West 322 371 36,000  Level Miami Center
Tue 03:09:29 PM 24.4214 -78.1642 292° West 322 371 36,000  Level Miami Center
Tue 03:10:29 PM 24.4519 -78.2558 290° West 322 371 36,000  Level Miami Center
Tue 03:11:29 PM 24.4825 -78.3475 290° West 322 371 36,000  Level Miami Center
Tue 03:12:29 PM 24.5108 -78.4369 289° West 322 371 36,000  Level Miami Center
Tue 03:13:29 PM 24.5433 -78.5289 291° West 322 371 36,000  Level Miami Center
Tue 03:14:29 PM 24.5694 -78.6206 287° West 322 371 36,000  Level Miami Center
Tue 03:15:29 PM 24.6058 -78.7125 294° West 322 371 36,000  Level Miami Center
Tue 03:16:29 PM 24.6361 -78.8044 290° West 322 371 36,000  Level Miami Center
Tue 03:17:29 PM 24.6661 -78.9008 289° West 322 371 36,000  Level Miami Center
Tue 03:18:29 PM 24.6942 -78.9906 289° West 316 364 36,000 -150 Level Miami Center
Tue 03:19:29 PM 24.7242 -79.0803 290° West 316 364 35,700 -950 Descending Miami Center
Tue 03:20:29 PM 24.7581 -79.1792 291° West 322 371 34,100 -1,450 Descending Miami Center
Tue 03:21:29 PM 24.7900 -79.2828 289° West 346 398 32,800 -1,250 Descending Miami Center
Tue 03:22:29 PM 24.8236 -79.3889 289° West 358 412 31,600 -1,200 Descending Miami Center
Tue 03:23:29 PM 24.8594 -79.4903 291° West 358 412 30,400 -1,200 Descending Miami Center
Tue 03:24:29 PM 24.8931 -79.5986 289° West 364 419 29,200 -1,150 Descending Miami Center
Tue 03:25:29 PM 24.9267 -79.7050 289° West 369 425 28,100 -600 Descending Miami Center
Tue 03:26:29 PM 24.9600 -79.8086 290° West 369 425 28,000 -50 Descending Miami Center
Tue 03:27:29 PM 24.9914 -79.9058 290° West 358 412 28,000  Level Miami Center
Tue 03:28:29 PM 25.0228 -80.0050 289° West 352 405 28,000  Level Miami Center
Tue 03:29:29 PM 25.0542 -80.1044 289° West 352 405 28,000  Level Miami Center
Tue 03:30:29 PM 25.0853 -80.2017 289° West 346 398 28,000  Level Miami Center
Tue 03:31:29 PM 25.1167 -80.2989 290° West 346 398 28,000 -50 Level Miami Center
Tue 03:32:29 PM 25.1478 -80.3961 289° West 346 398 27,900 -750 Descending Miami Center
Tue 03:33:29 PM 25.1806 -80.5006 289° West 351 404 26,500 -1,450 Descending Miami Center
Tue 03:34:29 PM 25.2136 -80.6025 290° West 351 404 25,000 -1,500 Descending Miami Center
Tue 03:35:29 PM 25.2444 -80.7022 289° West 351 404 23,500 -1,550 Descending Miami Center
Tue 03:36:29 PM 25.2753 -80.7997 289° West 351 404 21,900 -1,250 Descending Miami Center
Tue 03:37:29 PM 25.3061 -80.8994 289° West 351 404 21,000 -450 Descending Miami Center
Tue 03:38:29 PM 25.3367 -80.9992 289° West 351 404 21,000  Level Miami Center
Tue 03:39:29 PM 25.3617 -81.0736 290° West 346 398 21,000 -500 Level Miami Center
Tue 03:40:29 PM 25.3942 -81.1806 289° West 341 392 20,000 -1,100 Descending Miami Center
Tue 03:41:29 PM 25.4247 -81.2783 289° West 341 392 18,800 -1,200 Descending Miami Center
Tue 03:42:29 PM 25.4531 -81.3711 289° West 341 392 17,600 -1,300 Descending Miami Center
Tue 03:43:29 PM 25.4817 -81.4619 289° West 328 377 16,200 -1,600 Descending Miami Center
Tue 03:44:29 PM 25.5378 -81.5356 310° West 322 371 14,400 -1,800 Descending Miami Center
Tue 03:45:29 PM 25.6250 -81.5503 351° North 288 331 12,600 -2,000 Descending Miami Center
Tue 03:46:29 PM 25.7186 -81.5656 352° North 288 331 10,400 -1,300 Descending Miami Center
Tue 03:47:29 PM 25.8017 -81.5825 350° North 300 345 10,000 -200 Descending Miami Center
Tue 03:48:29 PM 25.8844 -81.5975 351° North 300 345 10,000  Level Miami Center
Tue 03:49:29 PM 25.9653 -81.6169 348° North 295 339 10,000 -600 Level Miami Center
Tue 03:50:29 PM 26.0400 -81.6336 349° North 289 333 8,800 -1,250 Descending Miami Center
Tue 03:51:29 PM 26.1167 -81.6483 350° North 279 321 7,500 -1,300 Descending Miami Center
Tue 03:52:29 PM 26.1811 -81.6625 349° North 268 308 6,200 -700 Descending Miami Center
Tue 03:53:29 PM 26.2564 -81.6561 North 263 303 6,100 -50 Descending Miami Center
Tue 03:54:29 PM 26.3283 -81.6267 20° North 269 310 6,100  Level Miami Center
Tue 03:55:29 PM 26.4022 -81.5994 18° North 275 316 6,100  Level Miami Center
Tue 03:57:00 PM 26.4912 -81.7028 343° North  Level Estimated
Tue 04:04:00 PM 26.5333 -81.7500 42° Northeast  Level FlightAware
Tue 04:05:00 PM 26.5362 -81.7552 42° Northeast  Level Estimated
Tue 04:06:00 PM 26.5333 -81.7500 42° Northeast  Level FlightAware
Tue 04:07:00 PM 26.5362 -81.7552 42° Northeast  Level Estimated
Tue 04:08:00 PM 26.5333 -81.7500 42° Northeast  Level FlightAware
Tue 04:09:00 PM 26.5362 -81.7552 42° Northeast  Level Estimated
Tue 04:10:00 PM 26.5333 -81.7500 42° Northeast  Level FlightAware
Tue 04:11:00 PM 26.5362 -81.7552 42° Northeast  Level Estimated

Login

Don't have an account? Register now (free) for customized features, flight alerts, and more!